Time;durP1;ratioP1;P1;durP2;ratioP2;P2;SDS_P1;SDS_P2;PMS_P1;PMS_P2;Temp;Humidity;BMP_temperature;BMP_pressure;BME280_temperature;BME280_humidity;BME280_pressure;Samples;Min_cycle;Max_cycle;Signal;HPM_P1;HPM_P2
2023/03/12 00:00:26;;;;;;;6.97;5.40;;;1.60;99.90;;;;;;4861943;29;20476;-56
2023/03/12 00:02:55;;;;;;;11.20;6.33;;;1.80;99.90;;;;;;4848274;29;20824;-57
2023/03/12 00:05:24;;;;;;;8.50;5.50;;;1.50;99.90;;;;;;4848824;29;20483;-57
2023/03/12 00:07:58;;;;;;;7.37;4.87;;;1.30;99.90;;;;;;4843827;29;20485;-56
2023/03/12 00:10:26;;;;;;;8.00;5.53;;;1.80;99.90;;;;;;4843704;29;20846;-57
2023/03/12 00:12:54;;;;;;;9.93;5.57;;;2.00;99.90;;;;;;4843764;29;20479;-57
2023/03/12 00:15:23;;;;;;;6.07;5.10;;;1.80;99.90;;;;;;4846560;29;20488;-57
2023/03/12 00:17:51;;;;;;;9.00;5.27;;;1.60;99.90;;;;;;4854302;29;20481;-57
2023/03/12 00:20:20;;;;;;;9.30;4.53;;;1.40;99.90;;;;;;4841672;29;20973;-57
2023/03/12 00:22:49;;;;;;;6.37;5.07;;;1.40;99.90;;;;;;4845963;29;20476;-56
2023/03/12 00:25:19;;;;;;;9.10;5.73;;;1.40;99.90;;;;;;4851299;29;20486;-57
2023/03/12 00:27:47;;;;;;;8.23;5.03;;;1.50;99.90;;;;;;4836452;29;20808;-57
2023/03/12 00:30:16;;;;;;;6.40;4.20;;;1.50;99.90;;;;;;4832669;29;20490;-57
2023/03/12 00:32:44;;;;;;;6.57;4.53;;;1.60;99.90;;;;;;4839669;29;20558;-57
2023/03/12 00:35:12;;;;;;;6.27;5.30;;;1.60;99.90;;;;;;4838653;29;20543;-57
2023/03/12 00:37:40;;;;;;;11.13;5.07;;;1.40;99.90;;;;;;4831833;29;20491;-57
2023/03/12 00:40:10;;;;;;;6.50;5.30;;;1.30;99.90;;;;;;4836544;29;20568;-57
2023/03/12 00:42:39;;;;;;;8.20;5.57;;;1.50;99.90;;;;;;4832262;29;21016;-57
2023/03/12 00:45:08;;;;;;;5.77;4.77;;;1.30;99.90;;;;;;4826728;29;20853;-57
2023/03/12 00:47:36;;;;;;;7.93;6.20;;;1.40;99.90;;;;;;4824812;29;21080;-57
2023/03/12 00:50:05;;;;;;;9.97;5.33;;;1.30;99.90;;;;;;4829109;29;20576;-57
2023/03/12 00:52:33;;;;;;;9.53;5.00;;;1.10;99.90;;;;;;4835076;29;20552;-56
2023/03/12 00:55:01;;;;;;;10.13;6.30;;;1.30;99.90;;;;;;4853476;29;20506;-57
2023/03/12 00:57:29;;;;;;;8.10;6.30;;;1.20;99.90;;;;;;4843163;29;20997;-57
2023/03/12 00:59:59;;;;;;;9.00;5.00;;;1.00;99.90;;;;;;4842994;29;20469;-57
2023/03/12 01:02:27;;;;;;;9.07;6.50;;;1.40;99.90;;;;;;4844911;29;20493;-57
2023/03/12 01:04:56;;;;;;;8.57;5.57;;;1.60;99.90;;;;;;4868338;29;20541;-57
2023/03/12 01:07:25;;;;;;;10.73;6.87;;;1.30;99.90;;;;;;4841472;29;20484;-56
2023/03/12 01:09:53;;;;;;;10.00;7.10;;;1.80;99.90;;;;;;4842708;29;20487;-57
2023/03/12 01:12:21;;;;;;;10.00;6.40;;;1.80;99.90;;;;;;4842765;29;20466;-57
2023/03/12 01:14:49;;;;;;;10.13;6.03;;;1.60;99.90;;;;;;4842534;29;20497;-57
2023/03/12 01:17:19;;;;;;;11.20;7.40;;;1.60;99.90;;;;;;4842635;29;20504;-57
2023/03/12 01:19:47;;;;;;;9.27;6.27;;;1.40;99.90;;;;;;4842478;29;20464;-57
2023/03/12 01:22:15;;;;;;;10.10;5.70;;;1.30;99.90;;;;;;4843198;29;20490;-56
2023/03/12 01:24:44;;;;;;;8.97;6.60;;;1.40;99.90;;;;;;4853070;29;20469;-57
2023/03/12 01:27:12;;;;;;;8.93;6.90;;;1.40;99.90;;;;;;4861232;29;20468;-57
2023/03/12 01:29:40;;;;;;;7.40;6.60;;;1.50;99.90;;;;;;4860811;29;20473;-57
2023/03/12 01:32:08;;;;;;;9.33;6.23;;;1.40;99.90;;;;;;4856353;29;20495;-57
2023/03/12 01:34:37;;;;;;;7.27;6.20;;;1.30;99.90;;;;;;4848576;29;20468;-57
2023/03/12 01:37:07;;;;;;;8.47;5.37;;;1.40;99.90;;;;;;4842362;29;20469;-57
2023/03/12 01:39:35;;;;;;;9.23;5.40;;;1.50;99.90;;;;;;4842179;29;20501;-56
2023/03/12 01:42:04;;;;;;;9.67;6.00;;;1.60;99.90;;;;;;4841025;29;20474;-56
2023/03/12 01:44:54;;;;;;;10.77;6.93;;;1.80;99.90;;;;;;4840959;29;20474;-57
2023/03/12 01:47:22;;;;;;;8.97;6.53;;;1.60;99.90;;;;;;4840968;29;20493;-57
2023/03/12 01:49:55;;;;;;;8.37;6.17;;;1.70;99.90;;;;;;4840907;29;20513;-56
2023/03/12 01:52:27;;;;;;;9.47;6.30;;;1.70;99.90;;;;;;4843686;29;20500;-56
2023/03/12 01:55:01;;;;;;;8.87;6.13;;;1.80;99.90;;;;;;4851393;29;20479;-57
2023/03/12 01:57:34;;;;;;;9.20;6.10;;;1.60;99.90;;;;;;4859222;29;20477;-57
2023/03/12 02:00:07;;;;;;;9.73;5.30;;;1.60;99.90;;;;;;4859185;29;20476;-57
2023/03/12 02:02:43;;;;;;;6.60;5.37;;;1.60;99.90;;;;;;4851207;29;20486;-57
2023/03/12 02:05:20;;;;;;;10.40;5.63;;;1.60;99.90;;;;;;4846611;29;20475;-57
2023/03/12 02:07:49;;;;;;;6.47;5.47;;;1.70;99.90;;;;;;4841971;29;20507;-57
2023/03/12 02:10:17;;;;;;;9.97;5.27;;;1.60;99.90;;;;;;4842204;29;20484;-57
2023/03/12 02:12:46;;;;;;;8.17;5.20;;;1.60;99.90;;;;;;4841604;29;20489;-57
2023/03/12 02:15:14;;;;;;;9.97;5.90;;;1.70;99.90;;;;;;4841426;29;20572;-57
2023/03/12 02:17:42;;;;;;;7.47;5.07;;;2.00;99.90;;;;;;4840561;29;20519;-57
2023/03/12 02:20:17;;;;;;;6.57;5.30;;;2.00;99.90;;;;;;4840693;29;20543;-57
2023/03/12 02:22:54;;;;;;;12.40;6.50;;;2.20;99.90;;;;;;4844796;29;21042;-57
2023/03/12 02:25:30;;;;;;;6.90;6.20;;;2.40;99.90;;;;;;4852596;29;20567;-57
2023/03/12 02:28:00;;;;;;;9.30;5.80;;;2.40;99.90;;;;;;4859094;29;20484;-56
2023/03/12 02:30:31;;;;;;;11.63;6.10;;;2.20;99.90;;;;;;4859635;29;20484;-56
2023/03/12 02:33:04;;;;;;;8.00;5.33;;;1.90;99.90;;;;;;4852333;29;20465;-56
2023/03/12 02:35:33;;;;;;;6.93;5.33;;;2.20;99.90;;;;;;4844076;29;20783;-57
2023/03/12 02:38:01;;;;;;;9.57;6.17;;;2.10;99.90;;;;;;4841745;29;20465;-57
2023/03/12 02:40:36;;;;;;;7.13;5.70;;;1.90;99.90;;;;;;4841560;29;20559;-56
2023/03/12 02:43:06;;;;;;;7.97;5.70;;;1.90;99.90;;;;;;4840445;29;20487;-57
2023/03/12 02:45:35;;;;;;;5.30;4.57;;;1.90;99.90;;;;;;4840262;29;20480;-57
2023/03/12 02:48:06;;;;;;;6.83;4.40;;;1.80;99.90;;;;;;4841273;29;21017;-57
2023/03/12 02:50:34;;;;;;;7.63;5.40;;;1.90;99.90;;;;;;4840380;29;20978;-57
2023/03/12 02:53:03;;;;;;;6.57;5.00;;;1.70;99.90;;;;;;4846746;29;20499;-57
2023/03/12 02:55:33;;;;;;;6.60;5.10;;;1.80;99.90;;;;;;4850900;29;20476;-57
2023/03/12 02:58:01;;;;;;;6.50;4.60;;;1.70;99.90;;;;;;4846296;29;20479;-57
2023/03/12 03:00:31;;;;;;;7.63;5.07;;;1.60;99.90;;;;;;4840474;29;20542;-57
2023/03/12 03:03:01;;;;;;;9.07;5.17;;;1.60;99.90;;;;;;4872487;29;20536;-57
2023/03/12 03:05:30;;;;;;;7.97;5.40;;;1.50;99.90;;;;;;4844691;29;20529;-57
2023/03/12 03:07:58;;;;;;;12.17;4.97;;;1.40;99.90;;;;;;4843047;29;20473;-57
2023/03/12 03:10:27;;;;;;;7.37;5.47;;;1.40;99.90;;;;;;4840106;29;20572;-57
2023/03/12 03:12:57;;;;;;;6.53;5.00;;;1.60;99.90;;;;;;4840363;29;20936;-57
2023/03/12 03:15:26;;;;;;;7.43;5.20;;;1.50;99.90;;;;;;4838699;29;20576;-57
2023/03/12 03:17:54;;;;;;;6.37;4.80;;;1.40;99.90;;;;;;4840279;29;20476;-57
2023/03/12 03:20:24;;;;;;;10.33;5.47;;;1.30;99.90;;;;;;4841421;29;20476;-57
2023/03/12 03:22:53;;;;;;;7.17;5.20;;;1.20;99.90;;;;;;4845557;29;20977;-57
2023/03/12 03:25:22;;;;;;;6.87;5.33;;;1.20;99.90;;;;;;4852516;29;20865;-57
2023/03/12 03:27:51;;;;;;;9.77;6.03;;;1.40;99.90;;;;;;4844750;29;20510;-57
2023/03/12 03:30:21;;;;;;;8.53;5.53;;;1.20;99.90;;;;;;4843377;29;20482;-57
2023/03/12 03:32:51;;;;;;;6.47;4.93;;;1.10;99.90;;;;;;4874231;29;20492;-61
2023/03/12 03:35:20;;;;;;;8.87;5.17;;;1.00;99.90;;;;;;4859402;29;20485;-57
2023/03/12 03:37:49;;;;;;;7.53;5.07;;;0.90;99.90;;;;;;4846043;29;21025;-57
2023/03/12 03:40:18;;;;;;;8.13;5.60;;;0.90;99.90;;;;;;4844400;29;20477;-57
2023/03/12 03:42:46;;;;;;;8.27;5.07;;;0.90;99.90;;;;;;4844080;29;21079;-57
2023/03/12 03:45:14;;;;;;;8.50;5.93;;;0.80;99.90;;;;;;4844654;29;20465;-57
2023/03/12 03:47:45;;;;;;;7.77;5.10;;;0.80;99.90;;;;;;4842867;29;20492;-56
2023/03/12 03:50:14;;;;;;;10.37;5.60;;;0.80;99.90;;;;;;4843047;29;20481;-56
2023/03/12 03:52:42;;;;;;;6.77;5.50;;;0.80;99.90;;;;;;4844433;29;20488;-57
2023/03/12 03:55:10;;;;;;;6.77;5.47;;;0.80;99.90;;;;;;4853633;29;20480;-57
2023/03/12 03:57:39;;;;;;;9.20;5.63;;;0.70;99.90;;;;;;4861172;29;20492;-56
2023/03/12 04:00:11;;;;;;;6.00;4.77;;;0.70;99.90;;;;;;4862480;29;20473;-56
2023/03/12 04:02:46;;;;;;;6.93;5.13;;;0.70;99.90;;;;;;4871077;29;20548;-57
2023/03/12 04:05:18;;;;;;;10.73;5.63;;;0.70;99.90;;;;;;4848701;29;20486;-57
2023/03/12 04:07:48;;;;;;;8.07;6.00;;;0.70;99.90;;;;;;4842654;29;20887;-57
2023/03/12 04:10:20;;;;;;;7.40;5.80;;;0.70;99.90;;;;;;4842597;29;20579;-56
2023/03/12 04:12:48;;;;;;;7.63;5.87;;;0.70;99.90;;;;;;4842445;29;20592;-57
2023/03/12 04:15:17;;;;;;;12.13;5.90;;;0.90;99.90;;;;;;4842339;29;20571;-56
2023/03/12 04:17:47;;;;;;;9.10;6.47;;;0.90;99.90;;;;;;4842438;29;20582;-57
2023/03/12 04:20:16;;;;;;;9.33;6.40;;;0.90;99.90;;;;;;4842516;29;20477;-57
2023/03/12 04:22:44;;;;;;;9.50;6.50;;;1.30;99.90;;;;;;4844259;29;20470;-57
2023/03/12 04:25:12;;;;;;;10.60;7.30;;;1.10;99.90;;;;;;4853128;29;20479;-57
2023/03/12 04:27:40;;;;;;;11.53;7.50;;;1.30;99.90;;;;;;4861844;29;20502;-57
2023/03/12 04:30:10;;;;;;;11.53;6.93;;;1.10;99.90;;;;;;4860704;29;20515;-56
2023/03/12 04:32:39;;;;;;;9.40;6.73;;;0.90;99.90;;;;;;4850818;29;20500;-57
2023/03/12 04:35:08;;;;;;;10.17;7.37;;;0.80;99.90;;;;;;4849139;29;20473;-56
2023/03/12 04:37:37;;;;;;;7.23;6.53;;;0.90;99.90;;;;;;4842721;29;20471;-57
2023/03/12 04:40:06;;;;;;;11.70;7.37;;;0.80;99.90;;;;;;4842085;29;20513;-57
2023/03/12 04:42:35;;;;;;;7.00;6.30;;;0.80;99.90;;;;;;4841973;29;20929;-57
2023/03/12 04:45:05;;;;;;;7.43;6.30;;;0.70;99.90;;;;;;4841885;29;20489;-57
2023/03/12 04:47:34;;;;;;;10.90;6.63;;;0.70;99.90;;;;;;4841765;29;20496;-57
2023/03/12 04:50:03;;;;;;;11.43;6.87;;;0.70;99.90;;;;;;4841606;29;20482;-57
2023/03/12 04:52:33;;;;;;;6.53;5.40;;;0.80;99.90;;;;;;4841606;29;20587;-56
2023/03/12 04:55:01;;;;;;;8.87;6.90;;;0.90;99.90;;;;;;4853466;29;20457;-56
2023/03/12 04:57:30;;;;;;;10.00;7.67;;;0.90;99.90;;;;;;4858416;29;20456;-57
2023/03/12 04:59:58;;;;;;;10.70;7.37;;;0.90;99.90;;;;;;4860222;29;20480;-57
2023/03/12 05:02:26;;;;;;;8.90;5.87;;;0.80;99.90;;;;;;4854491;29;20485;-56
2023/03/12 05:04:56;;;;;;;8.20;6.93;;;0.80;99.90;;;;;;4849133;29;20566;-57
2023/03/12 05:07:25;;;;;;;10.13;7.30;;;0.70;99.90;;;;;;4841501;29;20485;-57
2023/03/12 05:09:55;;;;;;;9.07;7.03;;;0.60;99.90;;;;;;4842782;29;20471;-56
2023/03/12 05:12:23;;;;;;;14.17;6.90;;;0.70;99.90;;;;;;4841528;29;20493;-56
2023/03/12 05:14:51;;;;;;;8.03;7.23;;;0.60;99.90;;;;;;4841286;29;20485;-56
2023/03/12 05:17:19;;;;;;;10.47;7.37;;;0.70;99.90;;;;;;4841389;29;21075;-57
2023/03/12 05:19:47;;;;;;;8.47;6.50;;;0.60;99.90;;;;;;4841358;29;20481;-56
2023/03/12 05:22:16;;;;;;;9.87;6.77;;;0.50;99.90;;;;;;4842117;29;20580;-56
2023/03/12 05:24:44;;;;;;;8.33;6.30;;;0.50;99.90;;;;;;4851850;29;20481;-57
2023/03/12 05:27:13;;;;;;;8.57;6.63;;;0.40;99.90;;;;;;4860969;29;20834;-56
2023/03/12 05:29:41;;;;;;;8.10;5.83;;;0.40;99.90;;;;;;4859534;29;20563;-57
2023/03/12 05:32:10;;;;;;;8.60;6.20;;;0.50;99.90;;;;;;4854962;29;20502;-57
2023/03/12 05:34:38;;;;;;;10.37;6.83;;;0.50;99.90;;;;;;4834981;29;20473;-57
2023/03/12 05:37:06;;;;;;;8.77;6.53;;;0.50;99.90;;;;;;4841106;29;20477;-56
2023/03/12 05:39:34;;;;;;;7.97;6.50;;;0.50;99.90;;;;;;4840746;29;20488;-56
2023/03/12 05:42:05;;;;;;;8.20;6.37;;;0.60;99.90;;;;;;4840902;29;20528;-57
2023/03/12 05:44:35;;;;;;;11.20;5.93;;;0.60;99.90;;;;;;4840443;29;20480;-57
2023/03/12 05:47:03;;;;;;;9.83;6.43;;;0.60;99.90;;;;;;4841050;29;20473;-56
2023/03/12 05:49:31;;;;;;;7.70;6.43;;;0.60;99.90;;;;;;4840026;29;21073;-57
2023/03/12 05:51:59;;;;;;;7.57;6.60;;;0.60;99.90;;;;;;4842231;29;20552;-57
2023/03/12 05:54:28;;;;;;;10.43;6.43;;;0.60;99.90;;;;;;4853071;29;20488;-57
2023/03/12 05:56:56;;;;;;;9.27;6.17;;;0.60;99.90;;;;;;4858480;29;20908;-57
2023/03/12 05:59:26;;;;;;;9.00;6.43;;;0.60;99.90;;;;;;4859190;29;20491;-57
2023/03/12 06:01:57;;;;;;;7.57;6.43;;;0.60;99.90;;;;;;4856425;29;20489;-57
2023/03/12 06:04:26;;;;;;;13.30;7.80;;;0.60;99.90;;;;;;4833550;29;20523;-57
2023/03/12 06:06:58;;;;;;;8.83;7.40;;;0.60;99.90;;;;;;4841929;29;20472;-56
2023/03/12 06:09:27;;;;;;;10.50;7.57;;;0.60;99.90;;;;;;4840569;29;20492;-57
2023/03/12 06:11:55;;;;;;;11.00;7.30;;;0.60;99.90;;;;;;4840694;29;20588;-56
2023/03/12 06:14:23;;;;;;;10.67;7.80;;;0.60;99.90;;;;;;4840486;29;20907;-56
2023/03/12 06:16:52;;;;;;;8.57;7.57;;;0.60;99.90;;;;;;4840078;29;20575;-57
2023/03/12 06:19:22;;;;;;;9.80;7.90;;;0.60;99.90;;;;;;4841957;29;21029;-57
2023/03/12 06:21:50;;;;;;;9.83;7.27;;;0.60;99.90;;;;;;4841848;29;20485;-57
2023/03/12 06:24:19;;;;;;;8.07;6.90;;;0.60;99.90;;;;;;4843179;29;20485;-57
2023/03/12 06:26:54;;;;;;;11.27;7.47;;;0.60;99.90;;;;;;4857879;29;20485;-57
2023/03/12 06:29:22;;;;;;;8.13;7.33;;;0.60;99.90;;;;;;4860373;29;20476;-56
2023/03/12 06:31:51;;;;;;;12.40;8.70;;;0.60;99.90;;;;;;4852131;29;20486;-57
2023/03/12 06:34:19;;;;;;;15.93;10.20;;;0.70;99.90;;;;;;4835732;29;20492;-57
2023/03/12 06:36:48;;;;;;;10.73;9.07;;;0.70;99.90;;;;;;4833127;29;20485;-57
2023/03/12 06:39:17;;;;;;;11.77;9.43;;;0.70;99.90;;;;;;4830600;29;20470;-57
2023/03/12 06:41:45;;;;;;;10.03;7.77;;;0.70;99.90;;;;;;4841557;29;20470;-57
2023/03/12 06:44:13;;;;;;;10.27;7.60;;;0.70;99.90;;;;;;4841936;29;20835;-57
2023/03/12 06:46:43;;;;;;;8.67;6.60;;;0.70;99.90;;;;;;4841536;29;20468;-56
2023/03/12 06:49:11;;;;;;;9.43;7.60;;;0.70;99.90;;;;;;4841850;29;20491;-57
2023/03/12 06:51:39;;;;;;;8.80;6.90;;;0.80;99.90;;;;;;4841445;29;20473;-57
2023/03/12 06:54:09;;;;;;;11.07;6.50;;;0.80;99.90;;;;;;4849853;29;20507;-57
2023/03/12 06:56:37;;;;;;;7.07;6.17;;;0.80;99.90;;;;;;4847169;29;20478;-57
2023/03/12 06:59:05;;;;;;;11.50;6.90;;;0.80;99.90;;;;;;4829627;29;20474;-56
2023/03/12 07:01:33;;;;;;;11.90;6.93;;;0.80;99.90;;;;;;4839769;29;20477;-56
2023/03/12 07:04:01;;;;;;;9.97;6.13;;;0.90;99.90;;;;;;4842043;29;20473;-57
2023/03/12 07:06:29;;;;;;;11.27;6.37;;;0.90;99.90;;;;;;4833726;29;20469;-57
2023/03/12 07:08:57;;;;;;;8.63;5.97;;;0.90;99.90;;;;;;4835960;29;20489;-57
2023/03/12 07:11:27;;;;;;;7.83;6.50;;;0.90;99.90;;;;;;4835896;29;20482;-56
2023/03/12 07:13:56;;;;;;;9.93;6.80;;;0.90;99.90;;;;;;4834244;29;20502;-57
2023/03/12 07:16:24;;;;;;;7.37;6.67;;;1.00;99.90;;;;;;4834830;29;20492;-57
2023/03/12 07:18:52;;;;;;;7.70;6.10;;;1.00;99.90;;;;;;4836181;29;20949;-57
2023/03/12 07:21:22;;;;;;;11.77;7.00;;;1.10;99.90;;;;;;4834865;29;20481;-56
2023/03/12 07:23:50;;;;;;;7.77;5.60;;;1.10;99.90;;;;;;4844786;29;20568;-57
2023/03/12 07:26:19;;;;;;;5.97;5.27;;;1.10;99.90;;;;;;4838480;29;20985;-57
2023/03/12 07:28:49;;;;;;;8.87;6.20;;;1.10;99.90;;;;;;4834644;29;20982;-57
2023/03/12 07:31:17;;;;;;;9.37;5.23;;;1.20;99.90;;;;;;4838288;29;20481;-57
2023/03/12 07:33:45;;;;;;;6.93;5.30;;;1.30;99.90;;;;;;4839330;29;20504;-56
2023/03/12 07:36:13;;;;;;;6.87;5.17;;;1.30;99.90;;;;;;4835793;29;20894;-57
2023/03/12 07:38:42;;;;;;;5.13;4.63;;;1.30;99.90;;;;;;4835115;29;20511;-57
2023/03/12 07:41:10;;;;;;;5.73;4.80;;;1.30;99.90;;;;;;4836052;29;20510;-57
2023/03/12 07:43:38;;;;;;;8.07;4.53;;;1.30;99.90;;;;;;4834124;29;20473;-57
2023/03/12 07:46:07;;;;;;;6.60;4.57;;;1.30;99.90;;;;;;4834562;29;21024;-57
2023/03/12 07:48:35;;;;;;;7.83;4.73;;;1.40;99.90;;;;;;4835518;29;20986;-57
2023/03/12 07:51:04;;;;;;;5.53;4.63;;;1.40;99.90;;;;;;4834841;29;20478;-57
2023/03/12 07:53:32;;;;;;;6.67;5.00;;;1.50;99.90;;;;;;4837690;29;20835;-56
2023/03/12 07:56:00;;;;;;;8.90;5.10;;;1.50;99.90;;;;;;4840824;29;20484;-57
2023/03/12 07:58:28;;;;;;;9.63;4.57;;;1.60;99.90;;;;;;4835365;29;20480;-57
2023/03/12 08:00:57;;;;;;;9.50;5.40;;;1.70;99.90;;;;;;4838562;29;20483;-56
2023/03/12 08:03:26;;;;;;;11.20;5.70;;;1.80;99.90;;;;;;4839329;29;20572;-57
2023/03/12 08:05:59;;;;;;;10.00;5.63;;;1.80;99.90;;;;;;4840289;29;20481;-56
2023/03/12 08:08:28;;;;;;;7.73;5.13;;;1.90;99.90;;;;;;4825670;29;20832;-57
2023/03/12 08:10:56;;;;;;;9.80;5.07;;;1.90;99.90;;;;;;4825356;29;21032;-57
2023/03/12 08:13:25;;;;;;;10.57;5.00;;;1.80;99.90;;;;;;4829001;29;20482;-57
2023/03/12 08:15:53;;;;;;;10.60;4.80;;;1.80;99.90;;;;;;4832834;29;20534;-56
2023/03/12 08:18:23;;;;;;;7.47;4.90;;;1.80;99.90;;;;;;4834692;29;20489;-57
2023/03/12 08:20:54;;;;;;;9.47;4.80;;;1.80;99.90;;;;;;4831313;29;20967;-58
2023/03/12 08:23:22;;;;;;;6.43;4.90;;;1.70;99.90;;;;;;4838453;29;20473;-57
2023/03/12 08:25:51;;;;;;;6.53;4.90;;;1.80;99.90;;;;;;4851391;29;20470;-57
2023/03/12 08:28:20;;;;;;;6.17;5.47;;;1.80;99.90;;;;;;4842349;29;20553;-57
2023/03/12 08:30:49;;;;;;;7.83;4.90;;;1.90;99.90;;;;;;4845880;29;20488;-56
2023/03/12 08:33:17;;;;;;;8.33;4.80;;;1.90;99.90;;;;;;4849789;29;20823;-57
2023/03/12 08:35:45;;;;;;;6.97;4.70;;;1.90;99.90;;;;;;4841385;29;20490;-57
2023/03/12 08:38:15;;;;;;;6.47;4.83;;;2.00;99.90;;;;;;4835578;29;20843;-57
2023/03/12 08:40:43;;;;;;;8.27;5.37;;;2.10;99.90;;;;;;4833208;29;20482;-56
2023/03/12 08:43:11;;;;;;;8.80;5.70;;;2.20;99.90;;;;;;4833850;29;20474;-57
2023/03/12 08:45:39;;;;;;;6.70;4.80;;;2.30;99.90;;;;;;4834751;29;20465;-57
2023/03/12 08:48:08;;;;;;;7.33;5.43;;;2.40;99.90;;;;;;4836003;29;20560;-57
2023/03/12 08:50:36;;;;;;;8.53;5.60;;;2.40;99.90;;;;;;4832762;29;20481;-57
2023/03/12 08:53:04;;;;;;;8.97;5.67;;;2.50;99.90;;;;;;4838188;29;20495;-57
2023/03/12 08:55:33;;;;;;;8.10;5.30;;;2.50;99.90;;;;;;4840445;29;20499;-57
2023/03/12 08:58:01;;;;;;;7.70;5.00;;;2.50;99.90;;;;;;4837425;29;20469;-57
2023/03/12 09:00:29;;;;;;;8.60;6.00;;;2.50;99.90;;;;;;4837130;29;20961;-57
2023/03/12 09:02:58;;;;;;;11.50;6.43;;;2.60;99.90;;;;;;4847588;29;20480;-57
2023/03/12 09:05:28;;;;;;;7.20;5.63;;;2.60;99.90;;;;;;4847714;29;21058;-56
2023/03/12 09:07:57;;;;;;;6.53;5.93;;;2.60;99.90;;;;;;4842893;29;20498;-57
2023/03/12 09:10:26;;;;;;;10.93;6.00;;;2.70;99.90;;;;;;4843123;29;20994;-57
2023/03/12 09:12:59;;;;;;;9.13;6.20;;;2.80;99.90;;;;;;4843008;29;20998;-57
2023/03/12 09:15:27;;;;;;;8.63;6.20;;;2.80;99.90;;;;;;4842399;29;20502;-57
2023/03/12 09:17:56;;;;;;;8.20;5.80;;;3.00;99.90;;;;;;4842947;29;20466;-57
2023/03/12 09:20:25;;;;;;;9.33;5.30;;;3.30;99.90;;;;;;4847634;29;20489;-58
2023/03/12 09:22:53;;;;;;;6.87;5.10;;;3.40;99.90;;;;;;4855836;29;20486;-57
2023/03/12 09:25:22;;;;;;;7.50;5.33;;;3.50;99.90;;;;;;4851167;29;20474;-57
2023/03/12 09:27:50;;;;;;;8.50;5.70;;;3.30;99.90;;;;;;4838045;29;20507;-57
2023/03/12 09:30:23;;;;;;;8.10;5.43;;;3.40;99.90;;;;;;4836127;29;20510;-57
2023/03/12 09:32:52;;;;;;;8.33;4.87;;;3.40;99.90;;;;;;4845816;29;20542;-57
2023/03/12 09:35:20;;;;;;;8.10;5.33;;;3.50;99.90;;;;;;4860821;29;20507;-57
2023/03/12 09:37:50;;;;;;;9.73;5.50;;;3.60;99.90;;;;;;4846830;29;20487;-57
2023/03/12 09:40:22;;;;;;;12.50;7.97;;;3.60;99.90;;;;;;4842480;29;20515;-58
2023/03/12 09:42:53;;;;;;;11.83;7.13;;;3.70;99.90;;;;;;4842309;29;20475;-58
2023/03/12 09:45:25;;;;;;;7.93;5.50;;;3.90;99.90;;;;;;4842274;29;20482;-58
2023/03/12 09:47:56;;;;;;;10.07;5.43;;;4.00;99.90;;;;;;4842548;29;20978;-57
2023/03/12 09:50:28;;;;;;;9.40;6.23;;;4.00;99.90;;;;;;4842234;29;20472;-57
2023/03/12 09:53:00;;;;;;;14.37;7.77;;;4.10;99.90;;;;;;4844777;29;20938;-57
2023/03/12 09:55:35;;;;;;;9.80;6.87;;;4.20;99.90;;;;;;4852578;29;20489;-57
2023/03/12 09:58:03;;;;;;;6.97;6.07;;;4.30;99.90;;;;;;4860806;29;20475;-57
2023/03/12 10:00:35;;;;;;;12.90;8.37;;;4.40;99.90;;;;;;4836659;29;20490;-57
2023/03/12 10:03:22;;;;;;;8.50;6.40;;;4.40;99.90;;;;;;4842485;29;20967;-58
2023/03/12 10:06:06;;;;;;;6.73;6.00;;;4.50;99.90;;;;;;4840782;29;20478;-58
2023/03/12 10:08:46;;;;;;;7.03;5.30;;;4.40;99.90;;;;;;4842157;29;20482;-58
2023/03/12 10:11:22;;;;;;;11.93;5.80;;;4.50;99.90;;;;;;4839859;29;20570;-57
2023/03/12 10:14:02;;;;;;;6.37;5.07;;;4.70;99.90;;;;;;4841786;29;20475;-57
2023/03/12 10:16:42;;;;;;;6.73;5.00;;;4.80;99.90;;;;;;4841680;29;20499;-58
2023/03/12 10:19:25;;;;;;;5.13;4.53;;;4.90;99.90;;;;;;4845779;29;20478;-58
2023/03/12 10:21:59;;;;;;;5.97;4.43;;;5.00;99.90;;;;;;4860398;29;20511;-58
2023/03/12 10:24:40;;;;;;;6.10;4.13;;;5.10;99.90;;;;;;4850173;29;20478;-58
2023/03/12 10:27:14;;;;;;;6.17;4.43;;;5.00;99.90;;;;;;4823749;29;20234;-58
2023/03/12 10:29:45;;;;;;;7.10;4.40;;;5.00;99.90;;;;;;4825526;29;20473;-58
2023/03/12 10:32:20;;;;;;;5.70;4.00;;;5.10;99.90;;;;;;4849720;29;20491;-58
2023/03/12 10:34:53;;;;;;;5.83;4.27;;;5.00;99.90;;;;;;4843022;29;20527;-58
2023/03/12 10:37:24;;;;;;;7.20;4.07;;;5.00;99.90;;;;;;4845415;29;20326;-58
2023/03/12 10:39:54;;;;;;;5.00;4.00;;;5.10;99.90;;;;;;4845886;29;20245;-58
2023/03/12 10:42:24;;;;;;;6.77;4.27;;;5.20;99.90;;;;;;4845603;29;20836;-58
2023/03/12 10:44:56;;;;;;;6.60;4.20;;;5.20;99.90;;;;;;4845721;29;20245;-58
2023/03/12 10:47:33;;;;;;;6.37;4.00;;;5.30;99.90;;;;;;4845615;29;21022;-58
2023/03/12 10:50:17;;;;;;;9.50;4.17;;;5.20;99.90;;;;;;4845355;29;20309;-58
2023/03/12 10:52:46;;;;;;;8.57;3.97;;;5.20;99.90;;;;;;4842251;29;20239;-58
2023/03/12 10:55:22;;;;;;;8.23;4.33;;;5.20;99.90;;;;;;4852150;29;20505;-57
2023/03/12 10:57:51;;;;;;;6.67;4.13;;;5.10;99.90;;;;;;4846251;29;20242;-57
2023/03/12 11:00:22;;;;;;;8.07;5.60;;;5.20;99.90;;;;;;4844616;29;20578;-58
2023/03/12 11:03:02;;;;;;;6.77;5.00;;;5.20;99.90;;;;;;4854039;29;20468;-58
2023/03/12 11:05:33;;;;;;;8.17;4.30;;;5.20;99.90;;;;;;4859517;29;20699;-59
2023/03/12 11:08:02;;;;;;;9.00;5.23;;;5.30;99.90;;;;;;4845232;29;20235;-58
2023/03/12 11:10:43;;;;;;;10.73;5.50;;;5.30;99.90;;;;;;4842052;29;20471;-58
2023/03/12 11:13:25;;;;;;;6.20;4.47;;;5.30;99.90;;;;;;4841037;29;20240;-58
2023/03/12 11:15:54;;;;;;;6.90;4.53;;;5.20;99.90;;;;;;4844482;29;20243;-58
2023/03/12 11:18:30;;;;;;;8.13;4.50;;;5.20;99.90;;;;;;4843669;29;20771;-58
2023/03/12 11:21:14;;;;;;;8.43;4.93;;;5.10;99.90;;;;;;4845034;29;20652;-57
2023/03/12 11:23:43;;;;;;;10.40;5.23;;;5.00;99.90;;;;;;4847201;29;20236;-58
2023/03/12 11:26:16;;;;;;;10.90;6.17;;;4.90;99.90;;;;;;4849494;29;20696;-58
2023/03/12 11:28:47;;;;;;;14.60;10.10;;;5.00;99.90;;;;;;4841376;29;20710;-57
2023/03/12 11:31:25;;;;;;;32.67;19.43;;;4.90;99.90;;;;;;4848946;29;20241;-57
2023/03/12 11:34:00;;;;;;;15.10;10.20;;;4.90;99.90;;;;;;4850865;29;20647;-58
2023/03/12 11:36:43;;;;;;;11.07;8.20;;;4.90;99.90;;;;;;4862965;29;20707;-58
2023/03/12 11:39:20;;;;;;;10.30;6.03;;;5.00;99.90;;;;;;4862327;29;20226;-58
2023/03/12 11:42:07;;;;;;;8.33;5.10;;;5.00;99.90;;;;;;4838124;29;20592;-58
2023/03/12 11:44:40;;;;;;;12.03;6.07;;;5.00;99.90;;;;;;4842379;29;20231;-57
2023/03/12 11:47:24;;;;;;;7.10;4.17;;;4.90;99.90;;;;;;4842858;29;20235;-58
2023/03/12 11:50:10;;;;;;;7.73;4.87;;;5.00;99.90;;;;;;4824654;29;20623;-59
2023/03/12 11:52:56;;;;;;;12.90;9.33;;;4.90;99.90;;;;;;4843275;29;20249;-58
2023/03/12 11:55:39;;;;;;;7.93;6.23;;;5.00;99.90;;;;;;4854611;29;20512;-57
2023/03/12 11:58:32;;;;;;;6.83;5.30;;;5.10;99.90;;;;;;4862852;29;20842;-58
2023/03/12 12:01:08;;;;;;;8.00;5.80;;;5.10;99.90;;;;;;4859255;29;20230;-57
2023/03/12 12:04:00;;;;;;;6.40;3.90;;;5.20;99.90;;;;;;4854643;29;20257;-58
2023/03/12 12:06:40;;;;;;;5.33;3.33;;;5.00;99.90;;;;;;4839131;29;20787;-58
2023/03/12 12:09:18;;;;;;;5.63;3.40;;;4.70;99.90;;;;;;4825612;29;20492;-57
2023/03/12 12:11:58;;;;;;;4.43;3.40;;;4.60;99.90;;;;;;4825447;29;20239;-58
2023/03/12 12:14:49;;;;;;;8.63;4.33;;;4.60;99.90;;;;;;4825192;29;20248;-58
2023/03/12 12:17:28;;;;;;;7.00;4.20;;;4.60;99.90;;;;;;4825979;29;20505;-58
2023/03/12 12:20:17;;;;;;;20.20;10.53;;;4.60;99.90;;;;;;4840807;29;20467;-57
2023/03/12 12:22:59;;;;;;;20.67;10.00;;;4.70;99.90;;;;;;4843116;29;20726;-57
2023/03/12 12:26:06;;;;;;;11.90;6.63;;;4.70;99.90;;;;;;4854222;29;20221;-57
2023/03/12 12:29:08;;;;;;;5.77;4.10;;;4.70;99.90;;;;;;4854238;29;20862;-57
2023/03/12 12:31:45;;;;;;;6.57;4.50;;;4.50;99.90;;;;;;4861331;29;20238;-57
2023/03/12 12:34:39;;;;;;;7.67;4.20;;;4.40;99.90;;;;;;4836872;29;20661;-58
2023/03/12 12:37:24;;;;;;;8.10;4.40;;;4.30;99.90;;;;;;4853777;29;20500;-58
2023/03/12 12:40:04;;;;;;;7.70;5.00;;;4.20;99.90;;;;;;4856105;29;20463;-57
2023/03/12 12:42:36;;;;;;;7.90;4.77;;;4.20;99.90;;;;;;4843014;29;20484;-58
2023/03/12 12:45:06;;;;;;;5.70;4.17;;;4.20;99.90;;;;;;4842833;29;20227;-57
2023/03/12 12:47:40;;;;;;;7.20;3.60;;;4.10;99.90;;;;;;4844430;29;20234;-58
2023/03/12 12:50:16;;;;;;;5.50;3.33;;;4.20;99.90;;;;;;4839804;29;20230;-58
2023/03/12 12:52:45;;;;;;;11.23;6.23;;;4.20;99.90;;;;;;4839950;29;21011;-57
2023/03/12 12:55:22;;;;;;;8.33;5.40;;;4.20;99.90;;;;;;4838591;29;20235;-57
2023/03/12 12:57:56;;;;;;;8.57;6.10;;;4.20;99.90;;;;;;4833896;29;20234;-57
2023/03/12 13:00:40;;;;;;;18.07;9.47;;;4.20;99.90;;;;;;4829202;29;20248;-57
2023/03/12 13:03:14;;;;;;;13.60;8.53;;;4.30;99.90;;;;;;4844022;29;20592;-57
2023/03/12 13:05:49;;;;;;;18.57;11.27;;;4.30;99.90;;;;;;4842855;29;20570;-57
2023/03/12 13:08:35;;;;;;;15.97;9.33;;;4.20;99.90;;;;;;4837731;29;20507;-57
2023/03/12 13:11:06;;;;;;;11.00;7.40;;;4.10;99.90;;;;;;4838239;29;20836;-58
2023/03/12 13:13:50;;;;;;;11.20;7.10;;;4.20;99.90;;;;;;4835229;29;20243;-57
2023/03/12 13:16:28;;;;;;;12.17;8.07;;;4.20;99.90;;;;;;4842589;29;20845;-57